Time;durP1;ratioP1;P1;durP2;ratioP2;P2;SDS_P1;SDS_P2;PMS_P1;PMS_P2;Temp;Humidity;BMP_temperature;BMP_pressure;BME280_temperature;BME280_humidity;BME280_pressure;Samples;Min_cycle;Max_cycle;Signal;HPM_P1;HPM_P2
2023/05/14 00:01:27;;;;;;;7.30;4.15;;;;;;;;;;5081891;28;20552;-78
2023/05/14 00:03:52;;;;;;;5.85;3.95;;;;;;;;;;5083699;28;20108;-78
2023/05/14 00:06:17;;;;;;;6.60;4.05;;;;;;;;;;5081437;28;20075;-78
2023/05/14 00:08:42;;;;;;;5.10;3.90;;;;;;;;;;5083836;28;20090;-78
2023/05/14 00:11:07;;;;;;;7.28;4.72;;;;;;;;;;5071488;28;20025;-78
2023/05/14 00:13:33;;;;;;;7.93;4.43;;;;;;;;;;5065103;28;20028;-78
2023/05/14 00:15:58;;;;;;;5.50;3.75;;;;;;;;;;5082579;28;20028;-78
2023/05/14 00:18:23;;;;;;;5.05;3.90;;;;;;;;;;5084153;28;20085;-78
2023/05/14 00:20:53;;;;;;;5.95;4.28;;;;;;;;;;5080919;28;20474;-78
2023/05/14 00:23:18;;;;;;;6.82;4.47;;;;;;;;;;5079614;28;20120;-78
2023/05/14 00:25:43;;;;;;;6.25;3.92;;;;;;;;;;5080349;28;20064;-78
2023/05/14 00:28:09;;;;;;;6.45;3.95;;;;;;;;;;5074108;28;20123;-78
2023/05/14 00:30:34;;;;;;;8.50;4.68;;;;;;;;;;5062362;28;20448;-78
2023/05/14 00:32:59;;;;;;;7.70;4.13;;;;;;;;;;5076727;28;20029;-78
2023/05/14 00:35:25;;;;;;;6.63;4.28;;;;;;;;;;5065740;28;20575;-78
2023/05/14 00:37:50;;;;;;;5.47;3.80;;;;;;;;;;5062224;28;20548;-78
2023/05/14 00:40:16;;;;;;;5.80;3.88;;;;;;;;;;5064957;28;20406;-78
2023/05/14 00:42:41;;;;;;;7.72;4.13;;;;;;;;;;5062495;28;20035;-78
2023/05/14 00:45:07;;;;;;;5.65;3.20;;;;;;;;;;5065209;28;20024;-78
2023/05/14 00:47:33;;;;;;;5.82;3.65;;;;;;;;;;5083200;28;20488;-78
2023/05/14 00:49:59;;;;;;;5.20;3.40;;;;;;;;;;5081374;28;20016;-78
2023/05/14 00:52:24;;;;;;;5.38;3.65;;;;;;;;;;5081378;28;20480;-78
2023/05/14 00:54:50;;;;;;;5.45;3.42;;;;;;;;;;5070565;28;20090;-78
2023/05/14 00:57:17;;;;;;;6.18;4.18;;;;;;;;;;5064404;28;20085;-78
2023/05/14 00:59:42;;;;;;;5.65;3.22;;;;;;;;;;5047740;28;20043;-78
2023/05/14 01:02:08;;;;;;;6.07;3.45;;;;;;;;;;5086075;28;20028;-78
2023/05/14 01:04:34;;;;;;;5.20;3.67;;;;;;;;;;5084887;28;20053;-78
2023/05/14 01:07:10;;;;;;;5.75;3.67;;;;;;;;;;5067273;28;20519;-78
2023/05/14 01:09:38;;;;;;;5.47;3.50;;;;;;;;;;5065496;28;20028;-78
2023/05/14 01:12:10;;;;;;;4.75;3.20;;;;;;;;;;5069079;28;20061;-78
2023/05/14 01:14:51;;;;;;;4.97;3.53;;;;;;;;;;5050943;28;20037;-78
2023/05/14 01:17:18;;;;;;;4.88;3.47;;;;;;;;;;5086727;28;20035;-78
2023/05/14 01:19:45;;;;;;;6.65;3.65;;;;;;;;;;5083587;28;20031;-78
2023/05/14 01:22:10;;;;;;;5.60;3.53;;;;;;;;;;5086706;28;20032;-78
2023/05/14 01:24:36;;;;;;;5.82;4.28;;;;;;;;;;5083112;28;20033;-78
2023/05/14 01:27:22;;;;;;;5.55;3.78;;;;;;;;;;5068573;28;20470;-78
2023/05/14 01:29:54;;;;;;;4.90;3.70;;;;;;;;;;5065800;28;20452;-78
2023/05/14 01:32:20;;;;;;;;;;;;;;;;;;5048784;28;20517;-78
2023/05/14 01:34:46;;;;;;;5.63;3.97;;;;;;;;;;5062650;28;20007;-78
2023/05/14 01:37:12;;;;;;;7.47;3.95;;;;;;;;;;5075990;28;20518;-78
2023/05/14 01:39:39;;;;;;;6.97;4.15;;;;;;;;;;5082523;28;20031;-78
2023/05/14 01:42:05;;;;;;;5.45;3.65;;;;;;;;;;5086308;28;20024;-78
2023/05/14 01:44:30;;;;;;;5.38;3.63;;;;;;;;;;5066071;28;20110;-78
2023/05/14 01:46:56;;;;;;;5.78;3.55;;;;;;;;;;5064688;28;20032;-78
2023/05/14 01:49:22;;;;;;;5.00;3.63;;;;;;;;;;5065164;28;20167;-79
2023/05/14 01:51:47;;;;;;;6.90;3.78;;;;;;;;;;5085181;28;20081;-78
2023/05/14 01:54:12;;;;;;;4.85;3.72;;;;;;;;;;5083317;28;20479;-78
2023/05/14 01:56:37;;;;;;;5.50;3.85;;;;;;;;;;5084724;28;20070;-78
2023/05/14 01:59:03;;;;;;;5.93;4.15;;;;;;;;;;5062562;28;20111;-78
2023/05/14 02:01:28;;;;;;;6.28;3.53;;;;;;;;;;5058321;28;20026;-78
2023/05/14 02:03:53;;;;;;;5.25;3.90;;;;;;;;;;5083730;28;20513;-78
2023/05/14 02:06:20;;;;;;;6.22;3.78;;;;;;;;;;5066325;28;20044;-78
2023/05/14 02:08:46;;;;;;;4.15;3.22;;;;;;;;;;5049017;28;20113;-78
2023/05/14 02:11:11;;;;;;;6.43;3.72;;;;;;;;;;5064849;28;20480;-78
2023/05/14 02:13:36;;;;;;;6.00;4.13;;;;;;;;;;5084593;28;20028;-79
2023/05/14 02:16:02;;;;;;;5.57;3.72;;;;;;;;;;5082206;28;20028;-78
2023/05/14 02:18:27;;;;;;;5.25;3.92;;;;;;;;;;5065653;28;20079;-78
2023/05/14 02:20:52;;;;;;;7.50;4.03;;;;;;;;;;5064876;28;20023;-78
2023/05/14 02:23:18;;;;;;;6.65;4.13;;;;;;;;;;5084135;28;20037;-79
2023/05/14 02:25:43;;;;;;;5.63;3.83;;;;;;;;;;5067011;28;20033;-79
2023/05/14 02:28:08;;;;;;;6.18;3.47;;;;;;;;;;5073257;28;20032;-78
2023/05/14 02:30:34;;;;;;;5.70;3.88;;;;;;;;;;5074219;28;20036;-78
2023/05/14 02:32:59;;;;;;;6.05;4.20;;;;;;;;;;5061044;28;20028;-78
2023/05/14 02:35:24;;;;;;;6.00;4.07;;;;;;;;;;5083407;28;20082;-79
2023/05/14 02:37:49;;;;;;;6.03;4.63;;;;;;;;;;5063093;28;20029;-78
2023/05/14 02:40:15;;;;;;;6.28;4.50;;;;;;;;;;5083482;28;20192;-78
2023/05/14 02:42:40;;;;;;;6.57;4.57;;;;;;;;;;5082216;28;20028;-78
2023/05/14 02:45:06;;;;;;;7.35;4.60;;;;;;;;;;5081942;28;20031;-78
2023/05/14 02:47:31;;;;;;;6.38;4.72;;;;;;;;;;5083667;28;20402;-78
2023/05/14 02:49:56;;;;;;;8.07;5.50;;;;;;;;;;5081452;28;20039;-78
2023/05/14 02:52:21;;;;;;;6.72;5.25;;;;;;;;;;5065543;28;20024;-78
2023/05/14 02:54:47;;;;;;;5.80;4.32;;;;;;;;;;5066444;28;20024;-78
2023/05/14 02:57:12;;;;;;;10.18;5.30;;;;;;;;;;5063109;28;20033;-78
2023/05/14 02:59:37;;;;;;;7.22;5.18;;;;;;;;;;5065350;28;20035;-78
2023/05/14 03:02:02;;;;;;;7.55;4.68;;;;;;;;;;5063212;28;20119;-78
2023/05/14 03:04:28;;;;;;;7.00;5.00;;;;;;;;;;5065491;28;20024;-77
2023/05/14 03:06:53;;;;;;;8.02;5.22;;;;;;;;;;5070738;28;20028;-77
2023/05/14 03:09:19;;;;;;;7.40;5.45;;;;;;;;;;5065223;28;20398;-78
2023/05/14 03:11:44;;;;;;;8.13;5.30;;;;;;;;;;5080761;28;20426;-78
2023/05/14 03:14:10;;;;;;;6.13;4.75;;;;;;;;;;5062651;28;20036;-78
2023/05/14 03:16:35;;;;;;;7.45;4.90;;;;;;;;;;5060268;28;20034;-78
2023/05/14 03:19:00;;;;;;;6.95;5.20;;;;;;;;;;5083222;28;20089;-78
2023/05/14 03:21:26;;;;;;;9.07;5.65;;;;;;;;;;5080526;28;20039;-77
2023/05/14 03:23:51;;;;;;;9.05;5.40;;;;;;;;;;5065327;28;20032;-78
2023/05/14 03:26:17;;;;;;;7.75;5.20;;;;;;;;;;5076449;28;20060;-77
2023/05/14 03:28:42;;;;;;;5.72;4.90;;;;;;;;;;5083916;28;20134;-78
2023/05/14 03:31:08;;;;;;;8.80;5.95;;;;;;;;;;5078157;28;20032;-78
2023/05/14 03:33:35;;;;;;;6.85;5.05;;;;;;;;;;5083314;28;20061;-78
2023/05/14 03:36:00;;;;;;;6.68;5.10;;;;;;;;;;5064421;28;20056;-78
2023/05/14 03:38:25;;;;;;;12.30;5.95;;;;;;;;;;5080477;28;20036;-78
2023/05/14 03:40:51;;;;;;;7.40;5.95;;;;;;;;;;5083103;28;20435;-77
2023/05/14 03:43:16;;;;;;;7.88;5.65;;;;;;;;;;5080704;28;20028;-78
2023/05/14 03:45:42;;;;;;;7.40;5.40;;;;;;;;;;5064799;28;20020;-77
2023/05/14 03:48:08;;;;;;;7.70;5.72;;;;;;;;;;5061521;28;20024;-78
2023/05/14 03:50:33;;;;;;;7.20;5.65;;;;;;;;;;5054705;28;20520;-78
2023/05/14 03:52:58;;;;;;;7.03;5.60;;;;;;;;;;5064445;28;20089;-78
2023/05/14 03:55:24;;;;;;;8.85;5.95;;;;;;;;;;5060646;28;20025;-78
2023/05/14 03:57:49;;;;;;;9.63;5.90;;;;;;;;;;5064406;28;20100;-78
2023/05/14 04:00:15;;;;;;;8.88;6.80;;;;;;;;;;5071516;28;20097;-78
2023/05/14 04:02:43;;;;;;;10.65;6.53;;;;;;;;;;5081563;28;20111;-78
2023/05/14 04:05:08;;;;;;;8.65;6.38;;;;;;;;;;5065202;28;20513;-78
2023/05/14 04:07:33;;;;;;;7.97;5.93;;;;;;;;;;5081611;28;20466;-78
2023/05/14 04:09:59;;;;;;;8.25;6.15;;;;;;;;;;5081457;28;20025;-78
2023/05/14 04:12:25;;;;;;;7.13;5.35;;;;;;;;;;5063555;28;20020;-78
2023/05/14 04:14:51;;;;;;;7.55;6.00;;;;;;;;;;5053172;28;20024;-78
2023/05/14 04:17:16;;;;;;;6.47;5.22;;;;;;;;;;5064150;28;20032;-78
2023/05/14 04:19:41;;;;;;;9.15;6.38;;;;;;;;;;5080893;28;20029;-78
2023/05/14 04:22:06;;;;;;;9.52;7.03;;;;;;;;;;5071337;28;20028;-78
2023/05/14 04:24:32;;;;;;;8.40;6.13;;;;;;;;;;5064413;28;20024;-78
2023/05/14 04:26:57;;;;;;;6.60;5.35;;;;;;;;;;5080701;28;20062;-78
2023/05/14 04:29:22;;;;;;;7.30;5.82;;;;;;;;;;5081140;28;20032;-78
2023/05/14 04:31:48;;;;;;;7.45;6.45;;;;;;;;;;5070124;28;20037;-78
2023/05/14 04:34:13;;;;;;;8.50;5.80;;;;;;;;;;5081339;28;20090;-79
2023/05/14 04:36:39;;;;;;;7.13;5.88;;;;;;;;;;5073419;28;20032;-78
2023/05/14 04:39:04;;;;;;;8.75;6.60;;;;;;;;;;5064810;28;20039;-77
2023/05/14 04:41:30;;;;;;;7.88;6.65;;;;;;;;;;5067672;28;20029;-78
2023/05/14 04:43:55;;;;;;;8.05;5.88;;;;;;;;;;5087510;28;20075;-79
2023/05/14 04:46:21;;;;;;;8.50;6.38;;;;;;;;;;5082659;28;20031;-78
2023/05/14 04:48:47;;;;;;;7.10;5.95;;;;;;;;;;5077622;28;20134;-78
2023/05/14 04:51:12;;;;;;;8.73;6.78;;;;;;;;;;5083849;28;20577;-79
2023/05/14 04:53:37;;;;;;;10.25;7.43;;;;;;;;;;5087490;28;20035;-78
2023/05/14 04:56:03;;;;;;;8.02;6.82;;;;;;;;;;5065660;28;20051;-78
2023/05/14 04:58:30;;;;;;;13.18;8.10;;;;;;;;;;5087272;28;20042;-78
2023/05/14 05:00:55;;;;;;;8.13;6.78;;;;;;;;;;5079634;28;20032;-78
2023/05/14 05:03:20;;;;;;;11.48;6.90;;;;;;;;;;5086375;28;20085;-78
2023/05/14 05:05:45;;;;;;;8.65;7.38;;;;;;;;;;5086167;28;20455;-77
2023/05/14 05:08:11;;;;;;;9.80;7.40;;;;;;;;;;5086040;28;20032;-78
2023/05/14 05:10:36;;;;;;;13.00;9.85;;;;;;;;;;5082479;28;20129;-77
2023/05/14 05:13:01;;;;;;;10.57;7.85;;;;;;;;;;5086293;28;20562;-78
2023/05/14 05:15:26;;;;;;;10.02;7.90;;;;;;;;;;5086519;28;20028;-78
2023/05/14 05:17:51;;;;;;;11.57;8.65;;;;;;;;;;5083062;28;20064;-78
2023/05/14 05:20:17;;;;;;;9.02;7.88;;;;;;;;;;5086286;28;20066;-78
2023/05/14 05:22:42;;;;;;;10.57;7.65;;;;;;;;;;5083281;28;20063;-78
2023/05/14 05:25:08;;;;;;;9.55;7.93;;;;;;;;;;5082705;28;20032;-78
2023/05/14 05:27:33;;;;;;;10.38;7.60;;;;;;;;;;5086279;28;20041;-78
2023/05/14 05:30:00;;;;;;;10.95;7.75;;;;;;;;;;5065455;28;20036;-77
2023/05/14 05:32:25;;;;;;;11.80;9.18;;;;;;;;;;5085266;28;20020;-78
2023/05/14 05:34:50;;;;;;;10.40;8.27;;;;;;;;;;5083309;28;20036;-78
2023/05/14 05:37:16;;;;;;;11.25;8.23;;;;;;;;;;5066787;28;20130;-78
2023/05/14 05:39:41;;;;;;;11.35;8.80;;;;;;;;;;5082843;28;20120;-77
2023/05/14 05:42:07;;;;;;;10.10;8.18;;;;;;;;;;5085000;28;20051;-78
2023/05/14 05:44:32;;;;;;;9.93;8.35;;;;;;;;;;5081798;28;20032;-79
2023/05/14 05:46:57;;;;;;;10.90;8.20;;;;;;;;;;5061945;28;20044;-79
2023/05/14 05:49:22;;;;;;;13.07;9.43;;;;;;;;;;5082700;28;20087;-78
2023/05/14 05:51:48;;;;;;;12.57;9.80;;;;;;;;;;5083841;28;20119;-78
2023/05/14 05:54:13;;;;;;;11.45;8.70;;;;;;;;;;5083638;28;20024;-79
2023/05/14 05:56:38;;;;;;;11.70;8.57;;;;;;;;;;5084951;28;20035;-78
2023/05/14 05:59:03;;;;;;;11.18;8.40;;;;;;;;;;5084167;28;20033;-78
2023/05/14 06:01:29;;;;;;;10.82;9.18;;;;;;;;;;5084797;28;20051;-78
2023/05/14 06:03:55;;;;;;;11.50;9.25;;;;;;;;;;5082570;28;20558;-78
2023/05/14 06:06:20;;;;;;;10.65;8.70;;;;;;;;;;5084480;28;20101;-79
2023/05/14 06:08:46;;;;;;;11.02;8.50;;;;;;;;;;5083899;28;20490;-78
2023/05/14 06:11:11;;;;;;;11.18;8.60;;;;;;;;;;5084242;28;20039;-78
2023/05/14 06:13:36;;;;;;;9.07;7.97;;;;;;;;;;5084027;28;20062;-78
2023/05/14 06:16:02;;;;;;;11.45;8.20;;;;;;;;;;5083147;28;20479;-78
2023/05/14 06:18:27;;;;;;;10.07;7.88;;;;;;;;;;5084487;28;20462;-79
2023/05/14 06:20:52;;;;;;;11.10;7.82;;;;;;;;;;5084346;28;20492;-78
2023/05/14 06:23:17;;;;;;;10.88;8.38;;;;;;;;;;5088110;28;20107;-79
2023/05/14 06:25:43;;;;;;;9.98;8.05;;;;;;;;;;5082138;28;20092;-79
2023/05/14 06:28:08;;;;;;;10.57;7.25;;;;;;;;;;5084999;28;20115;-78
2023/05/14 06:30:33;;;;;;;8.07;7.00;;;;;;;;;;5083232;28;20483;-79
2023/05/14 06:32:58;;;;;;;9.48;7.43;;;;;;;;;;5084692;28;20043;-79
2023/05/14 06:35:24;;;;;;;8.40;6.85;;;;;;;;;;5082812;28;20032;-78
2023/05/14 06:37:49;;;;;;;9.18;7.00;;;;;;;;;;5083380;28;20033;-78
2023/05/14 06:40:14;;;;;;;8.68;7.25;;;;;;;;;;5084547;28;20038;-79
2023/05/14 06:42:40;;;;;;;8.05;7.10;;;;;;;;;;5082778;28;20032;-78
2023/05/14 06:45:05;;;;;;;9.35;7.38;;;;;;;;;;5080277;28;20127;-79
2023/05/14 06:47:30;;;;;;;8.90;6.18;;;;;;;;;;5084688;28;20124;-78
2023/05/14 06:49:57;;;;;;;10.65;7.20;;;;;;;;;;5081959;28;20044;-78
2023/05/14 06:52:22;;;;;;;9.50;6.70;;;;;;;;;;5083438;28;20414;-79
2023/05/14 06:54:48;;;;;;;7.63;6.43;;;;;;;;;;5081794;28;20119;-79
2023/05/14 06:57:13;;;;;;;8.00;6.57;;;;;;;;;;5084615;28;20042;-79
2023/05/14 06:59:38;;;;;;;9.07;6.00;;;;;;;;;;5081369;28;20032;-79
2023/05/14 07:02:03;;;;;;;9.00;5.70;;;;;;;;;;5085017;28;20545;-79
2023/05/14 07:04:28;;;;;;;8.05;6.13;;;;;;;;;;5081117;28;20039;-79
2023/05/14 07:06:54;;;;;;;6.63;5.03;;;;;;;;;;5083435;28;20099;-77
2023/05/14 07:09:19;;;;;;;7.53;5.35;;;;;;;;;;5085436;28;20055;-79
2023/05/14 07:11:45;;;;;;;9.52;5.32;;;;;;;;;;5063573;28;20106;-79
2023/05/14 07:14:10;;;;;;;8.27;5.47;;;;;;;;;;5077599;28;20028;-79
2023/05/14 07:16:35;;;;;;;7.22;5.20;;;;;;;;;;5083028;28;20021;-79
2023/05/14 07:19:00;;;;;;;7.25;5.03;;;;;;;;;;5084868;28;20038;-80
2023/05/14 07:21:26;;;;;;;8.40;5.75;;;;;;;;;;5085359;28;20032;-80
2023/05/14 07:23:51;;;;;;;7.60;5.38;;;;;;;;;;5083607;28;20024;-79
2023/05/14 07:26:17;;;;;;;7.47;5.22;;;;;;;;;;5081767;28;20028;-79
2023/05/14 07:28:42;;;;;;;8.90;4.53;;;;;;;;;;5085217;28;20031;-79
2023/05/14 07:31:07;;;;;;;8.82;4.85;;;;;;;;;;5081606;28;20036;-78
2023/05/14 07:33:34;;;;;;;8.93;4.57;;;;;;;;;;5085042;28;20449;-79
2023/05/14 07:35:59;;;;;;;8.52;4.57;;;;;;;;;;5064105;28;20036;-79
2023/05/14 07:38:24;;;;;;;7.95;6.60;;;;;;;;;;5083933;28;20028;-79
2023/05/14 07:40:50;;;;;;;6.90;5.05;;;;;;;;;;5081830;28;20036;-79
2023/05/14 07:43:15;;;;;;;6.22;4.28;;;;;;;;;;5084095;28;20402;-79
2023/05/14 07:45:40;;;;;;;7.13;4.60;;;;;;;;;;5081567;28;20027;-79
2023/05/14 07:48:05;;;;;;;7.50;4.70;;;;;;;;;;5082253;28;20438;-79
2023/05/14 07:50:31;;;;;;;6.18;4.60;;;;;;;;;;5084179;28;20119;-79
2023/05/14 07:52:56;;;;;;;7.68;4.57;;;;;;;;;;5083405;28;20117;-79
2023/05/14 07:55:21;;;;;;;6.32;4.32;;;;;;;;;;5082965;28;20090;-79
2023/05/14 07:57:46;;;;;;;10.68;4.72;;;;;;;;;;5081600;28;20102;-78
2023/05/14 08:00:12;;;;;;;6.80;4.00;;;;;;;;;;5084381;28;20107;-78
2023/05/14 08:02:38;;;;;;;5.03;3.80;;;;;;;;;;5083353;28;20071;-78
2023/05/14 08:05:03;;;;;;;6.07;4.13;;;;;;;;;;5089196;22;20044;-76
2023/05/14 08:07:29;;;;;;;5.38;3.85;;;;;;;;;;5063308;28;20524;-76
2023/05/14 08:09:54;;;;;;;6.32;3.60;;;;;;;;;;5064640;28;20035;-77
2023/05/14 08:12:19;;;;;;;6.97;3.92;;;;;;;;;;5057977;28;20040;-76
2023/05/14 08:14:44;;;;;;;5.65;3.30;;;;;;;;;;5070796;28;20066;-76
2023/05/14 08:17:10;;;;;;;6.15;3.83;;;;;;;;;;5069172;28;20108;-76
2023/05/14 08:19:35;;;;;;;5.78;3.40;;;;;;;;;;5067130;28;20033;-76
2023/05/14 08:22:00;;;;;;;5.85;3.63;;;;;;;;;;5067283;28;20040;-76
2023/05/14 08:24:25;;;;;;;4.97;2.90;;;;;;;;;;5072629;28;20029;-76
2023/05/14 08:26:51;;;;;;;5.78;3.55;;;;;;;;;;5066239;28;20030;-76
2023/05/14 08:29:16;;;;;;;7.10;4.05;;;;;;;;;;5067001;28;20031;-76
2023/05/14 08:31:41;;;;;;;7.63;3.97;;;;;;;;;;5066310;28;20024;-77
2023/05/14 08:34:06;;;;;;;5.28;3.58;;;;;;;;;;5067291;28;20028;-76
2023/05/14 08:36:32;;;;;;;7.03;3.90;;;;;;;;;;5057520;28;20025;-77
2023/05/14 08:38:57;;;;;;;4.90;3.33;;;;;;;;;;5065067;28;20029;-77
2023/05/14 08:41:22;;;;;;;6.35;4.30;;;;;;;;;;5067082;28;20036;-76
2023/05/14 08:44:08;;;;;;;5.80;4.10;;;;;;;;;;5066059;28;20029;-77
2023/05/14 08:46:34;;;;;;;8.20;3.80;;;;;;;;;;5070646;28;20029;-77
2023/05/14 08:49:03;;;;;;;6.88;3.78;;;;;;;;;;5066006;28;20541;-76
2023/05/14 08:51:29;;;;;;;7.15;3.67;;;;;;;;;;5057159;28;20048;-76
2023/05/14 08:53:55;;;;;;;7.25;3.95;;;;;;;;;;5066878;28;20509;-76
2023/05/14 08:56:21;;;;;;;5.45;3.50;;;;;;;;;;5068801;28;20056;-77
2023/05/14 08:58:46;;;;;;;6.55;4.10;;;;;;;;;;5048073;28;20528;-76
2023/05/14 09:01:11;;;;;;;5.40;3.97;;;;;;;;;;5064985;28;20535;-77
2023/05/14 09:03:37;;;;;;;5.75;4.10;;;;;;;;;;5066978;28;20040;-77
2023/05/14 09:06:03;;;;;;;5.93;4.10;;;;;;;;;;5068226;28;20037;-77
2023/05/14 09:08:28;;;;;;;6.90;4.30;;;;;;;;;;5065961;28;20032;-76
2023/05/14 09:10:53;;;;;;;6.53;4.22;;;;;;;;;;5068447;28;20086;-76
2023/05/14 09:13:18;;;;;;;6.37;4.53;;;;;;;;;;5066845;28;20028;-76
2023/05/14 09:15:45;;;;;;;6.40;4.27;;;;;;;;;;5075614;28;20271;-76
2023/05/14 09:18:10;;;;;;;5.65;3.90;;;;;;;;;;5046001;28;20364;-78
2023/05/14 09:20:35;;;;;;;6.30;4.47;;;;;;;;;;5065807;28;20403;-77
2023/05/14 09:23:00;;;;;;;6.22;4.28;;;;;;;;;;5063966;28;20074;-77
2023/05/14 09:25:27;;;;;;;8.15;4.50;;;;;;;;;;5069160;28;20052;-77
2023/05/14 09:27:53;;;;;;;7.38;3.58;;;;;;;;;;5049182;28;20024;-77
2023/05/14 09:30:19;;;;;;;5.18;4.22;;;;;;;;;;5062698;28;20048;-77
2023/05/14 09:32:49;;;;;;;7.00;4.10;;;;;;;;;;5048762;28;20029;-77
2023/05/14 09:35:22;;;;;;;5.85;3.67;;;;;;;;;;5065814;28;20064;-77
2023/05/14 09:37:51;;;;;;;6.55;4.13;;;;;;;;;;5046487;28;20118;-77
2023/05/14 09:40:17;;;;;;;6.25;3.65;;;;;;;;;;5064923;28;20400;-77
2023/05/14 09:42:43;;;;;;;7.63;4.32;;;;;;;;;;5045530;28;20029;-77
2023/05/14 09:45:09;;;;;;;5.43;3.70;;;;;;;;;;5069382;28;20027;-77
2023/05/14 09:47:35;;;;;;;7.80;3.90;;;;;;;;;;5067290;28;20403;-76
2023/05/14 09:50:00;;;;;;;7.47;3.58;;;;;;;;;;5063579;28;20044;-77
2023/05/14 09:52:26;;;;;;;5.57;3.70;;;;;;;;;;5047678;28;20033;-77
2023/05/14 09:54:51;;;;;;;7.05;3.55;;;;;;;;;;5049004;28;20458;-76
2023/05/14 09:57:17;;;;;;;9.05;4.03;;;;;;;;;;5062625;28;20086;-78
2023/05/14 09:59:42;;;;;;;9.77;3.95;;;;;;;;;;5047295;28;20028;-77
2023/05/14 10:02:14;;;;;;;7.30;3.90;;;;;;;;;;5068192;28;20391;-76
2023/05/14 10:04:40;;;;;;;6.10;3.95;;;;;;;;;;5066494;28;20369;-77
2023/05/14 10:07:05;;;;;;;7.90;3.50;;;;;;;;;;5065430;28;20111;-77
2023/05/14 10:09:30;;;;;;;6.90;3.90;;;;;;;;;;5046298;28;20033;-77
2023/05/14 10:11:57;;;;;;;6.25;3.88;;;;;;;;;;5065616;28;20068;-77
2023/05/14 10:14:31;;;;;;;7.78;4.13;;;;;;;;;;5066146;28;20044;-76
2023/05/14 10:16:57;;;;;;;9.02;3.45;;;;;;;;;;5068366;28;20090;-76
2023/05/14 10:19:23;;;;;;;4.88;3.35;;;;;;;;;;5064508;28;20476;-78
2023/05/14 10:21:54;;;;;;;7.00;3.72;;;;;;;;;;5045657;28;20031;-76
2023/05/14 10:24:19;;;;;;;6.07;3.22;;;;;;;;;;5069127;28;20031;-78
2023/05/14 10:26:45;;;;;;;7.13;3.47;;;;;;;;;;5066011;28;20028;-77
2023/05/14 10:29:10;;;;;;;5.00;3.30;;;;;;;;;;5062155;28;20052;-77
2023/05/14 10:31:45;;;;;;;6.68;3.13;;;;;;;;;;5065133;28;20040;-77
2023/05/14 10:34:29;;;;;;;4.05;3.05;;;;;;;;;;5063450;28;20471;-77
2023/05/14 10:36:57;;;;;;;4.75;3.42;;;;;;;;;;5065796;28;20047;-77
2023/05/14 10:39:22;;;;;;;4.43;3.38;;;;;;;;;;5061638;28;20033;-77
2023/05/14 10:41:48;;;;;;;4.90;3.42;;;;;;;;;;5065816;28;20510;-78
2023/05/14 10:44:14;;;;;;;5.95;3.40;;;;;;;;;;5065636;28;20032;-78
2023/05/14 10:46:39;;;;;;;6.93;3.33;;;;;;;;;;5071358;28;20059;-77
2023/05/14 10:49:04;;;;;;;4.47;3.30;;;;;;;;;;5065722;28;20064;-77
2023/05/14 10:51:31;;;;;;;5.15;3.67;;;;;;;;;;5062026;28;20036;-77
2023/05/14 10:53:59;;;;;;;4.60;3.33;;;;;;;;;;5064591;28;20119;-77
2023/05/14 10:56:25;;;;;;;7.45;3.53;;;;;;;;;;5063325;28;20036;-77
2023/05/14 10:58:50;;;;;;;4.88;2.78;;;;;;;;;;5064797;28;20024;-77
2023/05/14 11:01:15;;;;;;;4.95;3.25;;;;;;;;;;5064819;28;20113;-77
2023/05/14 11:03:42;;;;;;;5.38;3.10;;;;;;;;;;5063495;28;20105;-76
2023/05/14 11:06:08;;;;;;;4.10;3.15;;;;;;;;;;5047310;28;20037;-77
2023/05/14 11:08:33;;;;;;;7.13;3.00;;;;;;;;;;5062949;28;20369;-77
2023/05/14 11:10:58;;;;;;;5.65;3.50;;;;;;;;;;5067485;28;20039;-77
2023/05/14 11:13:25;;;;;;;4.88;2.92;;;;;;;;;;5062783;28;20117;-77
2023/05/14 11:15:50;;;;;;;7.38;3.25;;;;;;;;;;5052189;28;20036;-78
2023/05/14 11:18:25;;;;;;;6.72;3.20;;;;;;;;;;5063646;28;20039;-78
2023/05/14 11:20:51;;;;;;;4.65;2.95;;;;;;;;;;5061029;28;20056;-77
2023/05/14 11:23:16;;;;;;;5.47;3.00;;;;;;;;;;5064415;28;20032;-77
2023/05/14 11:25:42;;;;;;;5.65;3.05;;;;;;;;;;5046944;28;20268;-76
2023/05/14 11:28:07;;;;;;;4.18;3.00;;;;;;;;;;5061197;28;20475;-77
2023/05/14 11:30:32;;;;;;;6.17;3.33;;;;;;;;;;5065186;28;20521;-77
2023/05/14 11:32:57;;;;;;;5.15;2.83;;;;;;;;;;5060925;28;20297;-77
2023/05/14 11:35:23;;;;;;;5.72;3.28;;;;;;;;;;5066894;28;20166;-77
2023/05/14 11:37:50;;;;;;;5.50;3.45;;;;;;;;;;5064572;28;20029;-78
2023/05/14 11:40:15;;;;;;;5.15;3.10;;;;;;;;;;5064264;28;20407;-78
2023/05/14 11:42:41;;;;;;;6.07;3.25;;;;;;;;;;5060667;28;20029;-77
2023/05/14 11:45:10;;;;;;;6.20;3.60;;;;;;;;;;5068810;28;20039;-77
2023/05/14 11:47:35;;;;;;;5.50;3.35;;;;;;;;;;5064204;28;20086;-77
2023/05/14 11:50:00;;;;;;;4.72;3.20;;;;;;;;;;5062863;28;20032;-76
2023/05/14 11:52:25;;;;;;;5.55;3.55;;;;;;;;;;5064499;28;20029;-77
2023/05/14 11:54:50;;;;;;;4.55;3.20;;;;;;;;;;5066584;28;20111;-78
2023/05/14 11:57:18;;;;;;;4.87;3.17;;;;;;;;;;5046384;28;20029;-76
2023/05/14 11:59:43;;;;;;;8.32;3.35;;;;;;;;;;5063178;28;20283;-77
2023/05/14 12:02:09;;;;;;;4.53;3.20;;;;;;;;;;5063441;28;20056;-77
2023/05/14 12:04:35;;;;;;;5.70;3.80;;;;;;;;;;5064738;28;20115;-76
2023/05/14 12:07:06;;;;;;;4.55;2.90;;;;;;;;;;5065247;28;20053;-76
2023/05/14 12:09:34;;;;;;;3.67;2.90;;;;;;;;;;5060107;28;20438;-78
2023/05/14 12:12:06;;;;;;;5.25;3.45;;;;;;;;;;5064700;28;20025;-78
2023/05/14 12:14:35;;;;;;;3.90;2.78;;;;;;;;;;5064396;28;20063;-77
2023/05/14 12:17:01;;;;;;;3.60;2.45;;;;;;;;;;5064707;28;20029;-78
2023/05/14 12:19:26;;;;;;;4.65;2.90;;;;;;;;;;5063332;28;20044;-77
2023/05/14 12:21:51;;;;;;;4.78;2.83;;;;;;;;;;5061505;28;20025;-78
2023/05/14 12:24:17;;;;;;;3.67;2.40;;;;;;;;;;5063776;28;20064;-77
2023/05/14 12:26:43;;;;;;;4.47;2.47;;;;;;;;;;5064186;28;20033;-76
2023/05/14 12:29:11;;;;;;;3.65;2.35;;;;;;;;;;5062498;28;20029;-77
2023/05/14 12:31:36;;;;;;;6.70;2.90;;;;;;;;;;5065959;28;20116;-77
2023/05/14 12:34:03;;;;;;;4.45;2.92;;;;;;;;;;5064160;28;20072;-77
2023/05/14 12:36:31;;;;;;;5.60;3.03;;;;;;;;;;5065858;28;20432;-77
2023/05/14 12:39:00;;;;;;;4.88;2.70;;;;;;;;;;5062917;28;20044;-78
2023/05/14 12:41:25;;;;;;;4.63;2.72;;;;;;;;;;5061135;28;20021;-77
2023/05/14 12:43:51;;;;;;;5.70;2.50;;;;;;;;;;5063290;28;20471;-76
2023/05/14 12:46:16;;;;;;;4.53;2.70;;;;;;;;;;5052138;28;20399;-78
2023/05/14 12:48:41;;;;;;;4.60;2.30;;;;;;;;;;5064046;28;20040;-76
2023/05/14 12:51:07;;;;;;;4.13;2.20;;;;;;;;;;5060360;28;20033;-77
2023/05/14 12:53:32;;;;;;;4.00;2.50;;;;;;;;;;5045982;28;20033;-77
2023/05/14 12:55:57;;;;;;;3.97;2.10;;;;;;;;;;5065534;28;20640;-77
2023/05/14 12:58:23;;;;;;;4.33;2.50;;;;;;;;;;5067457;28;20036;-77
2023/05/14 13:00:48;;;;;;;4.32;2.47;;;;;;;;;;5071271;28;20275;-79
2023/05/14 13:03:13;;;;;;;5.47;2.37;;;;;;;;;;5067714;28;20064;-77
2023/05/14 13:05:38;;;;;;;3.73;2.30;;;;;;;;;;5066687;28;20290;-77
2023/05/14 13:08:03;;;;;;;3.83;2.40;;;;;;;;;;5067967;28;20317;-77
2023/05/14 13:10:29;;;;;;;5.70;1.97;;;;;;;;;;5063598;28;20315;-78
2023/05/14 13:12:55;;;;;;;3.57;2.30;;;;;;;;;;5070231;28;20307;-77
2023/05/14 13:15:20;;;;;;;3.40;2.20;;;;;;;;;;5075157;28;20339;-77
2023/05/14 13:17:45;;;;;;;4.57;2.20;;;;;;;;;;5067070;28;20094;-78
2023/05/14 13:20:11;;;;;;;4.88;2.20;;;;;;;;;;5064885;28;20079;-79
2023/05/14 13:22:36;;;;;;;2.73;1.90;;;;;;;;;;5067727;28;20016;-79
2023/05/14 13:25:01;;;;;;;4.40;1.90;;;;;;;;;;5068897;28;20629;-79
2023/05/14 13:27:27;;;;;;;3.30;2.10;;;;;;;;;;5067271;28;20928;-78
2023/05/14 13:29:52;;;;;;;3.35;2.00;;;;;;;;;;5047035;28;20044;-77
2023/05/14 13:32:17;;;;;;;3.70;1.77;;;;;;;;;;5067609;28;20193;-78
2023/05/14 13:34:42;;;;;;;3.53;2.10;;;;;;;;;;5067477;28;20035;-77
2023/05/14 13:37:08;;;;;;;3.45;2.00;;;;;;;;;;5049912;28;20293;-78
2023/05/14 13:39:33;;;;;;;3.88;1.73;;;;;;;;;;5065689;28;20041;-78
2023/05/14 13:41:58;;;;;;;4.03;1.80;;;;;;;;;;5049090;28;20031;-77
2023/05/14 13:44:23;;;;;;;3.83;2.38;;;;;;;;;;5065069;28;20291;-79
2023/05/14 13:46:49;;;;;;;2.45;1.77;;;;;;;;;;5059511;28;20033;-78
2023/05/14 13:49:14;;;;;;;3.00;2.00;;;;;;;;;;5064980;28;20047;-78
2023/05/14 13:51:39;;;;;;;2.67;1.67;;;;;;;;;;5066630;28;20028;-78
2023/05/14 13:54:05;;;;;;;3.40;1.70;;;;;;;;;;5065440;28;20483;-77
2023/05/14 13:56:30;;;;;;;4.65;1.77;;;;;;;;;;5070309;28;20055;-79
2023/05/14 13:58:55;;;;;;;3.40;1.80;;;;;;;;;;5047358;28;20032;-79
2023/05/14 14:01:22;;;;;;;3.07;2.20;;;;;;;;;;5066837;28;20281;-78
2023/05/14 14:03:47;;;;;;;3.58;1.50;;;;;;;;;;5047913;28;20286;-79
2023/05/14 14:06:12;;;;;;;3.10;1.80;;;;;;;;;;5086938;22;20044;-80
2023/05/14 14:08:37;;;;;;;3.05;1.85;;;;;;;;;;5058920;28;20040;-80
2023/05/14 14:11:03;;;;;;;3.17;2.20;;;;;;;;;;5076421;28;20092;-80
2023/05/14 14:13:28;;;;;;;3.33;1.98;;;;;;;;;;5076897;28;20350;-79
2023/05/14 14:15:54;;;;;;;3.33;2.03;;;;;;;;;;5078821;28;20390;-80
2023/05/14 14:18:19;;;;;;;2.55;1.73;;;;;;;;;;5076101;28;20036;-81
2023/05/14 14:20:44;;;;;;;3.03;2.47;;;;;;;;;;5076625;28;20517;-79
2023/05/14 14:23:10;;;;;;;3.25;2.10;;;;;;;;;;5074929;28;20070;-80
2023/05/14 14:25:35;;;;;;;2.87;1.87;;;;;;;;;;5075804;28;20029;-80
2023/05/14 14:28:00;;;;;;;3.90;2.00;;;;;;;;;;5077282;28;20020;-80
2023/05/14 14:30:25;;;;;;;4.20;2.70;;;;;;;;;;5075593;28;20036;-81
2023/05/14 14:32:51;;;;;;;2.95;2.20;;;;;;;;;;5075745;28;20047;-80
2023/05/14 14:35:16;;;;;;;2.33;1.50;;;;;;;;;;5077915;28;20017;-80